sensor_id;sensor_type;location;lat;lon;timestamp;P1;durP1;ratioP1;P2;durP2;ratioP2
17985;SDS011;9118;48.122;11.546;2023-04-03T00:00:59;11.80;;;8.90;;
17985;SDS011;9118;48.122;11.546;2023-04-03T00:03:26;11.97;;;8.10;;
17985;SDS011;9118;48.122;11.546;2023-04-03T00:05:55;10.50;;;8.37;;
17985;SDS011;9118;48.122;11.546;2023-04-03T00:08:22;11.90;;;8.10;;
17985;SDS011;9118;48.122;11.546;2023-04-03T00:10:49;13.07;;;8.60;;
17985;SDS011;9118;48.122;11.546;2023-04-03T00:13:16;11.73;;;8.17;;
17985;SDS011;9118;48.122;11.546;2023-04-03T00:15:43;13.37;;;8.27;;
17985;SDS011;9118;48.122;11.546;2023-04-03T00:18:10;11.20;;;8.10;;
17985;SDS011;9118;48.122;11.546;2023-04-03T00:20:37;10.33;;;7.40;;
17985;SDS011;9118;48.122;11.546;2023-04-03T00:23:06;14.00;;;8.10;;
17985;SDS011;9118;48.122;11.546;2023-04-03T00:25:33;12.27;;;7.67;;
17985;SDS011;9118;48.122;11.546;2023-04-03T00:28:01;11.87;;;8.50;;
17985;SDS011;9118;48.122;11.546;2023-04-03T00:30:28;11.67;;;7.70;;
17985;SDS011;9118;48.122;11.546;2023-04-03T00:32:56;12.10;;;9.40;;
17985;SDS011;9118;48.122;11.546;2023-04-03T00:35:25;11.50;;;8.23;;
17985;SDS011;9118;48.122;11.546;2023-04-03T00:37:54;11.53;;;8.23;;
17985;SDS011;9118;48.122;11.546;2023-04-03T00:40:23;9.63;;;8.07;;
17985;SDS011;9118;48.122;11.546;2023-04-03T00:42:54;10.30;;;7.73;;
17985;SDS011;9118;48.122;11.546;2023-04-03T00:45:24;13.33;;;8.23;;
17985;SDS011;9118;48.122;11.546;2023-04-03T00:48:00;11.07;;;7.43;;
17985;SDS011;9118;48.122;11.546;2023-04-03T00:50:30;9.60;;;7.50;;
17985;SDS011;9118;48.122;11.546;2023-04-03T00:52:59;9.63;;;7.23;;
17985;SDS011;9118;48.122;11.546;2023-04-03T00:55:28;9.30;;;6.90;;
17985;SDS011;9118;48.122;11.546;2023-04-03T00:57:56;9.90;;;7.20;;
17985;SDS011;9118;48.122;11.546;2023-04-03T01:00:24;9.47;;;7.50;;
17985;SDS011;9118;48.122;11.546;2023-04-03T01:02:51;9.30;;;7.10;;
17985;SDS011;9118;48.122;11.546;2023-04-03T01:05:19;10.00;;;7.63;;
17985;SDS011;9118;48.122;11.546;2023-04-03T01:07:48;9.40;;;7.20;;
17985;SDS011;9118;48.122;11.546;2023-04-03T01:10:16;10.77;;;7.87;;
17985;SDS011;9118;48.122;11.546;2023-04-03T01:12:46;9.77;;;7.10;;
17985;SDS011;9118;48.122;11.546;2023-04-03T01:15:16;10.10;;;7.60;;
17985;SDS011;9118;48.122;11.546;2023-04-03T01:17:46;10.60;;;7.03;;
17985;SDS011;9118;48.122;11.546;2023-04-03T01:20:22;10.03;;;7.17;;
17985;SDS011;9118;48.122;11.546;2023-04-03T01:23:25;10.27;;;7.17;;
17985;SDS011;9118;48.122;11.546;2023-04-03T01:25:59;9.07;;;6.97;;
17985;SDS011;9118;48.122;11.546;2023-04-03T01:28:29;10.60;;;7.53;;
17985;SDS011;9118;48.122;11.546;2023-04-03T01:30:59;8.70;;;6.93;;
17985;SDS011;9118;48.122;11.546;2023-04-03T01:33:32;10.30;;;7.80;;
17985;SDS011;9118;48.122;11.546;2023-04-03T01:36:00;9.77;;;7.67;;
17985;SDS011;9118;48.122;11.546;2023-04-03T01:38:27;9.03;;;7.23;;
17985;SDS011;9118;48.122;11.546;2023-04-03T01:40:54;9.80;;;7.60;;
17985;SDS011;9118;48.122;11.546;2023-04-03T01:43:21;10.63;;;8.17;;
17985;SDS011;9118;48.122;11.546;2023-04-03T01:45:48;11.10;;;7.83;;
17985;SDS011;9118;48.122;11.546;2023-04-03T01:48:17;9.37;;;7.10;;
17985;SDS011;9118;48.122;11.546;2023-04-03T01:50:46;10.43;;;7.07;;
17985;SDS011;9118;48.122;11.546;2023-04-03T01:53:13;10.80;;;7.30;;
17985;SDS011;9118;48.122;11.546;2023-04-03T01:55:40;14.33;;;8.60;;
17985;SDS011;9118;48.122;11.546;2023-04-03T01:58:07;10.00;;;7.53;;
17985;SDS011;9118;48.122;11.546;2023-04-03T02:00:34;9.97;;;7.30;;
17985;SDS011;9118;48.122;11.546;2023-04-03T02:03:01;11.43;;;7.63;;
17985;SDS011;9118;48.122;11.546;2023-04-03T02:05:28;10.83;;;7.63;;
17985;SDS011;9118;48.122;11.546;2023-04-03T02:07:57;9.30;;;7.23;;
17985;SDS011;9118;48.122;11.546;2023-04-03T02:10:25;9.67;;;7.10;;
17985;SDS011;9118;48.122;11.546;2023-04-03T02:12:52;10.13;;;8.10;;
17985;SDS011;9118;48.122;11.546;2023-04-03T02:15:18;9.93;;;7.60;;
17985;SDS011;9118;48.122;11.546;2023-04-03T02:17:48;10.57;;;7.00;;
17985;SDS011;9118;48.122;11.546;2023-04-03T02:20:15;12.63;;;7.70;;
17985;SDS011;9118;48.122;11.546;2023-04-03T02:22:42;9.50;;;7.27;;
17985;SDS011;9118;48.122;11.546;2023-04-03T02:25:10;8.77;;;6.93;;
17985;SDS011;9118;48.122;11.546;2023-04-03T02:27:37;9.13;;;7.30;;
17985;SDS011;9118;48.122;11.546;2023-04-03T02:30:05;8.50;;;7.00;;
17985;SDS011;9118;48.122;11.546;2023-04-03T02:32:35;9.37;;;6.43;;
17985;SDS011;9118;48.122;11.546;2023-04-03T02:35:02;7.60;;;6.20;;
17985;SDS011;9118;48.122;11.546;2023-04-03T02:37:30;8.47;;;6.60;;
17985;SDS011;9118;48.122;11.546;2023-04-03T02:39:57;8.80;;;6.97;;
17985;SDS011;9118;48.122;11.546;2023-04-03T02:42:25;8.30;;;6.20;;
17985;SDS011;9118;48.122;11.546;2023-04-03T02:44:52;7.30;;;6.37;;
17985;SDS011;9118;48.122;11.546;2023-04-03T02:47:20;8.90;;;6.50;;
17985;SDS011;9118;48.122;11.546;2023-04-03T02:49:47;7.63;;;5.83;;
17985;SDS011;9118;48.122;11.546;2023-04-03T02:52:14;9.47;;;6.63;;
17985;SDS011;9118;48.122;11.546;2023-04-03T02:54:41;8.83;;;5.93;;
17985;SDS011;9118;48.122;11.546;2023-04-03T02:57:08;7.67;;;6.00;;
17985;SDS011;9118;48.122;11.546;2023-04-03T02:59:37;7.63;;;5.60;;
17985;SDS011;9118;48.122;11.546;2023-04-03T03:02:05;8.10;;;5.90;;
17985;SDS011;9118;48.122;11.546;2023-04-03T03:04:33;7.10;;;5.63;;
17985;SDS011;9118;48.122;11.546;2023-04-03T03:07:00;6.60;;;5.63;;
17985;SDS011;9118;48.122;11.546;2023-04-03T03:09:27;8.20;;;6.00;;
17985;SDS011;9118;48.122;11.546;2023-04-03T03:11:54;7.13;;;5.93;;
17985;SDS011;9118;48.122;11.546;2023-04-03T03:14:22;8.27;;;5.77;;
17985;SDS011;9118;48.122;11.546;2023-04-03T03:16:50;7.77;;;5.57;;
17985;SDS011;9118;48.122;11.546;2023-04-03T03:19:17;5.97;;;5.27;;
17985;SDS011;9118;48.122;11.546;2023-04-03T03:21:44;7.07;;;5.30;;
17985;SDS011;9118;48.122;11.546;2023-04-03T03:24:11;6.10;;;5.30;;
17985;SDS011;9118;48.122;11.546;2023-04-03T03:26:38;6.60;;;5.60;;
17985;SDS011;9118;48.122;11.546;2023-04-03T03:29:05;8.27;;;5.33;;
17985;SDS011;9118;48.122;11.546;2023-04-03T03:31:32;7.20;;;5.80;;
17985;SDS011;9118;48.122;11.546;2023-04-03T03:34:00;6.30;;;5.63;;
17985;SDS011;9118;48.122;11.546;2023-04-03T03:36:27;7.40;;;5.63;;
17985;SDS011;9118;48.122;11.546;2023-04-03T03:38:55;7.30;;;4.97;;
17985;SDS011;9118;48.122;11.546;2023-04-03T03:41:22;7.60;;;5.57;;
17985;SDS011;9118;48.122;11.546;2023-04-03T03:43:49;5.53;;;4.70;;
17985;SDS011;9118;48.122;11.546;2023-04-03T03:46:16;7.17;;;5.80;;
17985;SDS011;9118;48.122;11.546;2023-04-03T03:48:43;7.27;;;5.50;;
17985;SDS011;9118;48.122;11.546;2023-04-03T03:51:12;6.37;;;4.90;;
17985;SDS011;9118;48.122;11.546;2023-04-03T03:53:39;7.53;;;5.50;;
17985;SDS011;9118;48.122;11.546;2023-04-03T03:56:06;5.60;;;4.83;;
17985;SDS011;9118;48.122;11.546;2023-04-03T03:58:33;8.53;;;5.63;;
17985;SDS011;9118;48.122;11.546;2023-04-03T04:01:00;7.83;;;4.97;;
17985;SDS011;9118;48.122;11.546;2023-04-03T04:03:28;6.30;;;4.93;;
17985;SDS011;9118;48.122;11.546;2023-04-03T04:05:55;7.77;;;5.27;;
17985;SDS011;9118;48.122;11.546;2023-04-03T04:08:23;6.30;;;5.00;;
17985;SDS011;9118;48.122;11.546;2023-04-03T04:10:51;5.43;;;4.90;;
17985;SDS011;9118;48.122;11.546;2023-04-03T04:13:18;5.97;;;5.00;;
17985;SDS011;9118;48.122;11.546;2023-04-03T04:15:45;6.63;;;4.90;;
17985;SDS011;9118;48.122;11.546;2023-04-03T04:18:12;6.13;;;5.20;;
17985;SDS011;9118;48.122;11.546;2023-04-03T04:20:38;5.77;;;5.17;;
17985;SDS011;9118;48.122;11.546;2023-04-03T04:23:05;6.13;;;5.37;;
17985;SDS011;9118;48.122;11.546;2023-04-03T04:25:34;7.17;;;5.07;;
17985;SDS011;9118;48.122;11.546;2023-04-03T04:28:01;5.97;;;4.70;;
17985;SDS011;9118;48.122;11.546;2023-04-03T04:30:28;6.27;;;4.90;;
17985;SDS011;9118;48.122;11.546;2023-04-03T04:32:55;6.13;;;4.87;;
17985;SDS011;9118;48.122;11.546;2023-04-03T04:35:22;7.13;;;5.20;;
17985;SDS011;9118;48.122;11.546;2023-04-03T04:37:49;6.83;;;5.20;;
17985;SDS011;9118;48.122;11.546;2023-04-03T04:40:16;5.40;;;4.67;;
17985;SDS011;9118;48.122;11.546;2023-04-03T04:42:44;6.47;;;5.30;;
17985;SDS011;9118;48.122;11.546;2023-04-03T04:45:13;6.97;;;5.30;;
17985;SDS011;9118;48.122;11.546;2023-04-03T04:47:40;7.13;;;5.50;;
17985;SDS011;9118;48.122;11.546;2023-04-03T04:50:08;9.73;;;5.50;;
17985;SDS011;9118;48.122;11.546;2023-04-03T04:52:36;8.53;;;5.60;;
17985;SDS011;9118;48.122;11.546;2023-04-03T04:55:03;5.83;;;4.53;;
17985;SDS011;9118;48.122;11.546;2023-04-03T04:57:33;17.73;;;6.73;;
17985;SDS011;9118;48.122;11.546;2023-04-03T05:00:02;13.17;;;5.63;;
17985;SDS011;9118;48.122;11.546;2023-04-03T05:02:30;6.10;;;5.40;;
17985;SDS011;9118;48.122;11.546;2023-04-03T05:04:56;6.63;;;5.17;;
17985;SDS011;9118;48.122;11.546;2023-04-03T05:07:24;6.47;;;4.83;;
17985;SDS011;9118;48.122;11.546;2023-04-03T05:09:51;8.40;;;6.20;;
17985;SDS011;9118;48.122;11.546;2023-04-03T05:12:18;5.83;;;4.87;;
17985;SDS011;9118;48.122;11.546;2023-04-03T05:14:45;6.37;;;4.87;;
17985;SDS011;9118;48.122;11.546;2023-04-03T05:17:13;5.67;;;5.07;;
17985;SDS011;9118;48.122;11.546;2023-04-03T05:19:40;5.90;;;4.90;;
17985;SDS011;9118;48.122;11.546;2023-04-03T05:22:07;6.23;;;5.00;;
17985;SDS011;9118;48.122;11.546;2023-04-03T05:24:34;5.77;;;4.90;;
17985;SDS011;9118;48.122;11.546;2023-04-03T05:27:01;6.10;;;5.00;;
17985;SDS011;9118;48.122;11.546;2023-04-03T05:29:28;7.03;;;5.23;;
17985;SDS011;9118;48.122;11.546;2023-04-03T05:31:55;6.03;;;4.83;;
17985;SDS011;9118;48.122;11.546;2023-04-03T05:34:23;5.63;;;4.70;;
17985;SDS011;9118;48.122;11.546;2023-04-03T05:36:50;7.60;;;5.03;;
17985;SDS011;9118;48.122;11.546;2023-04-03T05:39:18;6.57;;;5.17;;
17985;SDS011;9118;48.122;11.546;2023-04-03T05:41:45;7.13;;;4.93;;
17985;SDS011;9118;48.122;11.546;2023-04-03T05:44:12;7.37;;;5.13;;
17985;SDS011;9118;48.122;11.546;2023-04-03T05:46:39;8.30;;;5.53;;
17985;SDS011;9118;48.122;11.546;2023-04-03T05:49:06;8.07;;;5.30;;
17985;SDS011;9118;48.122;11.546;2023-04-03T05:51:35;6.90;;;4.80;;
17985;SDS011;9118;48.122;11.546;2023-04-03T05:54:06;7.83;;;5.30;;
17985;SDS011;9118;48.122;11.546;2023-04-03T05:56:38;9.07;;;5.43;;
17985;SDS011;9118;48.122;11.546;2023-04-03T05:59:05;7.00;;;5.23;;
17985;SDS011;9118;48.122;11.546;2023-04-03T06:01:33;6.90;;;5.23;;
17985;SDS011;9118;48.122;11.546;2023-04-03T06:04:00;6.40;;;5.13;;
17985;SDS011;9118;48.122;11.546;2023-04-03T06:09:12;6.80;;;4.93;;
17985;SDS011;9118;48.122;11.546;2023-04-03T06:11:40;7.40;;;5.43;;
17985;SDS011;9118;48.122;11.546;2023-04-03T06:14:08;7.73;;;4.93;;
17985;SDS011;9118;48.122;11.546;2023-04-03T06:16:35;6.53;;;5.10;;
17985;SDS011;9118;48.122;11.546;2023-04-03T06:19:03;6.77;;;5.23;;
17985;SDS011;9118;48.122;11.546;2023-04-03T06:21:30;8.90;;;5.43;;
17985;SDS011;9118;48.122;11.546;2023-04-03T06:23:59;6.60;;;5.50;;
17985;SDS011;9118;48.122;11.546;2023-04-03T06:26:27;9.37;;;5.13;;
17985;SDS011;9118;48.122;11.546;2023-04-03T06:28:54;10.07;;;6.13;;
17985;SDS011;9118;48.122;11.546;2023-04-03T06:31:21;9.33;;;5.67;;
17985;SDS011;9118;48.122;11.546;2023-04-03T06:33:48;7.87;;;5.60;;
17985;SDS011;9118;48.122;11.546;2023-04-03T06:36:17;8.57;;;6.10;;
17985;SDS011;9118;48.122;11.546;2023-04-03T06:38:46;7.70;;;5.37;;
17985;SDS011;9118;48.122;11.546;2023-04-03T06:41:15;7.33;;;5.93;;
17985;SDS011;9118;48.122;11.546;2023-04-03T06:43:43;11.50;;;5.83;;
17985;SDS011;9118;48.122;11.546;2023-04-03T06:46:14;10.53;;;7.33;;
17985;SDS011;9118;48.122;11.546;2023-04-03T06:48:42;11.10;;;8.60;;
17985;SDS011;9118;48.122;11.546;2023-04-03T06:51:13;9.20;;;8.20;;
17985;SDS011;9118;48.122;11.546;2023-04-03T06:53:44;6.97;;;5.70;;
17985;SDS011;9118;48.122;11.546;2023-04-03T06:56:12;7.37;;;6.40;;
17985;SDS011;9118;48.122;11.546;2023-04-03T06:58:40;8.50;;;7.03;;
17985;SDS011;9118;48.122;11.546;2023-04-03T07:01:07;9.27;;;6.90;;
17985;SDS011;9118;48.122;11.546;2023-04-03T07:03:35;6.93;;;4.93;;
17985;SDS011;9118;48.122;11.546;2023-04-03T07:06:03;8.60;;;5.77;;
17985;SDS011;9118;48.122;11.546;2023-04-03T07:08:32;9.60;;;5.80;;
17985;SDS011;9118;48.122;11.546;2023-04-03T07:10:59;6.20;;;5.33;;
17985;SDS011;9118;48.122;11.546;2023-04-03T07:13:27;8.97;;;7.03;;
17985;SDS011;9118;48.122;11.546;2023-04-03T07:15:55;10.33;;;5.67;;
17985;SDS011;9118;48.122;11.546;2023-04-03T07:18:22;9.13;;;5.10;;
17985;SDS011;9118;48.122;11.546;2023-04-03T07:20:49;7.73;;;6.17;;
17985;SDS011;9118;48.122;11.546;2023-04-03T07:23:17;7.57;;;5.00;;
17985;SDS011;9118;48.122;11.546;2023-04-03T07:25:44;6.83;;;5.10;;
17985;SDS011;9118;48.122;11.546;2023-04-03T07:28:11;7.67;;;5.53;;
17985;SDS011;9118;48.122;11.546;2023-04-03T07:30:42;9.60;;;5.80;;
17985;SDS011;9118;48.122;11.546;2023-04-03T07:33:12;8.33;;;5.53;;
17985;SDS011;9118;48.122;11.546;2023-04-03T07:35:40;8.10;;;5.20;;
17985;SDS011;9118;48.122;11.546;2023-04-03T07:38:08;8.47;;;6.10;;
17985;SDS011;9118;48.122;11.546;2023-04-03T07:40:35;8.67;;;5.37;;
17985;SDS011;9118;48.122;11.546;2023-04-03T07:43:03;9.07;;;5.47;;
17985;SDS011;9118;48.122;11.546;2023-04-03T07:45:31;6.43;;;5.60;;
17985;SDS011;9118;48.122;11.546;2023-04-03T07:48:00;12.27;;;5.63;;
17985;SDS011;9118;48.122;11.546;2023-04-03T07:50:29;7.27;;;5.60;;
17985;SDS011;9118;48.122;11.546;2023-04-03T07:52:57;8.40;;;5.87;;
17985;SDS011;9118;48.122;11.546;2023-04-03T07:55:24;7.00;;;6.00;;
17985;SDS011;9118;48.122;11.546;2023-04-03T07:57:51;9.50;;;6.23;;
17985;SDS011;9118;48.122;11.546;2023-04-03T08:00:18;7.90;;;6.40;;
17985;SDS011;9118;48.122;11.546;2023-04-03T08:02:46;8.27;;;5.83;;
17985;SDS011;9118;48.122;11.546;2023-04-03T08:05:15;14.43;;;10.70;;
17985;SDS011;9118;48.122;11.546;2023-04-03T08:07:44;9.93;;;6.60;;
17985;SDS011;9118;48.122;11.546;2023-04-03T08:10:11;8.80;;;6.73;;
17985;SDS011;9118;48.122;11.546;2023-04-03T08:12:38;8.97;;;6.93;;
17985;SDS011;9118;48.122;11.546;2023-04-03T08:15:06;9.13;;;6.93;;
17985;SDS011;9118;48.122;11.546;2023-04-03T08:17:34;7.33;;;6.13;;
17985;SDS011;9118;48.122;11.546;2023-04-03T08:20:02;8.83;;;7.07;;
17985;SDS011;9118;48.122;11.546;2023-04-03T08:22:31;9.17;;;7.00;;
17985;SDS011;9118;48.122;11.546;2023-04-03T08:25:00;13.43;;;7.33;;
17985;SDS011;9118;48.122;11.546;2023-04-03T08:27:27;9.07;;;6.60;;
17985;SDS011;9118;48.122;11.546;2023-04-03T08:29:54;9.73;;;7.33;;
17985;SDS011;9118;48.122;11.546;2023-04-03T08:32:22;24.87;;;7.90;;
17985;SDS011;9118;48.122;11.546;2023-04-03T08:34:49;9.27;;;7.13;;
17985;SDS011;9118;48.122;11.546;2023-04-03T08:37:16;15.03;;;8.80;;
17985;SDS011;9118;48.122;11.546;2023-04-03T08:39:44;10.63;;;7.37;;
17985;SDS011;9118;48.122;11.546;2023-04-03T08:42:15;10.43;;;7.57;;
17985;SDS011;9118;48.122;11.546;2023-04-03T08:44:52;13.90;;;7.50;;
17985;SDS011;9118;48.122;11.546;2023-04-03T08:47:27;9.03;;;6.90;;
17985;SDS011;9118;48.122;11.546;2023-04-03T08:50:02;14.33;;;7.33;;
17985;SDS011;9118;48.122;11.546;2023-04-03T08:52:34;17.07;;;7.20;;
17985;SDS011;9118;48.122;11.546;2023-04-03T08:55:05;9.67;;;6.70;;
17985;SDS011;9118;48.122;11.546;2023-04-03T08:57:41;15.07;;;7.40;;
17985;SDS011;9118;48.122;11.546;2023-04-03T09:00:15;7.63;;;6.40;;
17985;SDS011;9118;48.122;11.546;2023-04-03T09:02:44;7.67;;;6.87;;
17985;SDS011;9118;48.122;11.546;2023-04-03T09:05:13;9.47;;;7.03;;
17985;SDS011;9118;48.122;11.546;2023-04-03T09:07:43;9.23;;;6.93;;
17985;SDS011;9118;48.122;11.546;2023-04-03T09:10:13;13.17;;;7.53;;
17985;SDS011;9118;48.122;11.546;2023-04-03T09:12:44;8.97;;;6.77;;
17985;SDS011;9118;48.122;11.546;2023-04-03T09:15:17;8.13;;;6.43;;
17985;SDS011;9118;48.122;11.546;2023-04-03T09:17:49;11.60;;;7.57;;
17985;SDS011;9118;48.122;11.546;2023-04-03T09:20:33;11.30;;;7.07;;
17985;SDS011;9118;48.122;11.546;2023-04-03T09:23:12;8.60;;;7.10;;
17985;SDS011;9118;48.122;11.546;2023-04-03T09:25:45;8.83;;;7.23;;
17985;SDS011;9118;48.122;11.546;2023-04-03T09:28:14;9.83;;;6.17;;
17985;SDS011;9118;48.122;11.546;2023-04-03T09:30:41;9.23;;;6.37;;
17985;SDS011;9118;48.122;11.546;2023-04-03T09:33:08;7.53;;;6.23;;
17985;SDS011;9118;48.122;11.546;2023-04-03T09:35:37;9.67;;;7.10;;
17985;SDS011;9118;48.122;11.546;2023-04-03T09:38:17;7.20;;;6.50;;
17985;SDS011;9118;48.122;11.546;2023-04-03T09:40:46;10.47;;;7.17;;
17985;SDS011;9118;48.122;11.546;2023-04-03T09:43:25;8.40;;;7.30;;
17985;SDS011;9118;48.122;11.546;2023-04-03T09:45:54;9.03;;;7.10;;
17985;SDS011;9118;48.122;11.546;2023-04-03T09:48:23;10.83;;;6.60;;
17985;SDS011;9118;48.122;11.546;2023-04-03T09:50:58;9.37;;;6.63;;
17985;SDS011;9118;48.122;11.546;2023-04-03T09:53:32;9.23;;;6.47;;
17985;SDS011;9118;48.122;11.546;2023-04-03T09:56:02;13.73;;;8.37;;
17985;SDS011;9118;48.122;11.546;2023-04-03T09:58:35;7.83;;;6.73;;
17985;SDS011;9118;48.122;11.546;2023-04-03T10:01:06;10.07;;;6.47;;
17985;SDS011;9118;48.122;11.546;2023-04-03T10:03:46;9.37;;;6.43;;
17985;SDS011;9118;48.122;11.546;2023-04-03T10:06:31;8.43;;;6.00;;
17985;SDS011;9118;48.122;11.546;2023-04-03T10:09:01;8.47;;;5.70;;
17985;SDS011;9118;48.122;11.546;2023-04-03T10:11:31;7.37;;;6.10;;
17985;SDS011;9118;48.122;11.546;2023-04-03T10:14:00;7.70;;;5.20;;
17985;SDS011;9118;48.122;11.546;2023-04-03T10:16:32;6.10;;;5.50;;
17985;SDS011;9118;48.122;11.546;2023-04-03T10:19:09;6.60;;;5.90;;
17985;SDS011;9118;48.122;11.546;2023-04-03T10:21:50;11.33;;;5.93;;
17985;SDS011;9118;48.122;11.546;2023-04-03T10:24:23;6.43;;;5.83;;
17985;SDS011;9118;48.122;11.546;2023-04-03T10:26:58;7.73;;;6.20;;
17985;SDS011;9118;48.122;11.546;2023-04-03T10:29:36;8.57;;;7.47;;
17985;SDS011;9118;48.122;11.546;2023-04-03T10:32:22;8.90;;;6.63;;
17985;SDS011;9118;48.122;11.546;2023-04-03T10:35:14;8.67;;;6.73;;
17985;SDS011;9118;48.122;11.546;2023-04-03T10:38:01;7.47;;;5.83;;
17985;SDS011;9118;48.122;11.546;2023-04-03T10:40:34;10.77;;;6.80;;
17985;SDS011;9118;48.122;11.546;2023-04-03T10:43:14;9.23;;;5.93;;
17985;SDS011;9118;48.122;11.546;2023-04-03T10:45:49;6.97;;;5.67;;
17985;SDS011;9118;48.122;11.546;2023-04-03T10:48:25;7.20;;;5.87;;
17985;SDS011;9118;48.122;11.546;2023-04-03T10:51:10;6.17;;;4.90;;
17985;SDS011;9118;48.122;11.546;2023-04-03T10:53:44;8.20;;;5.63;;
17985;SDS011;9118;48.122;11.546;2023-04-03T10:56:18;9.20;;;5.60;;
17985;SDS011;9118;48.122;11.546;2023-04-03T10:58:51;7.37;;;6.30;;
17985;SDS011;9118;48.122;11.546;2023-04-03T11:01:24;6.30;;;5.70;;
17985;SDS011;9118;48.122;11.546;2023-04-03T11:03:55;10.87;;;7.90;;
17985;SDS011;9118;48.122;11.546;2023-04-03T11:06:25;11.37;;;6.23;;
17985;SDS011;9118;48.122;11.546;2023-04-03T11:09:00;8.13;;;6.30;;
17985;SDS011;9118;48.122;11.546;2023-04-03T11:11:32;8.87;;;5.90;;
17985;SDS011;9118;48.122;11.546;2023-04-03T11:14:03;8.87;;;5.97;;
17985;SDS011;9118;48.122;11.546;2023-04-03T11:16:39;6.13;;;5.53;;
17985;SDS011;9118;48.122;11.546;2023-04-03T11:19:13;7.80;;;5.77;;
17985;SDS011;9118;48.122;11.546;2023-04-03T11:21:47;8.77;;;6.13;;
17985;SDS011;9118;48.122;11.546;2023-04-03T11:24:22;9.07;;;5.90;;
17985;SDS011;9118;48.122;11.546;2023-04-03T11:26:51;8.20;;;6.27;;
17985;SDS011;9118;48.122;11.546;2023-04-03T11:29:22;6.13;;;5.03;;
17985;SDS011;9118;48.122;11.546;2023-04-03T11:32:03;9.00;;;6.43;;
17985;SDS011;9118;48.122;11.546;2023-04-03T11:34:36;5.87;;;5.10;;
17985;SDS011;9118;48.122;11.546;2023-04-03T11:37:12;9.67;;;5.47;;
17985;SDS011;9118;48.122;11.546;2023-04-03T11:39:47;7.20;;;5.37;;
17985;SDS011;9118;48.122;11.546;2023-04-03T11:42:24;6.67;;;5.07;;
17985;SDS011;9118;48.122;11.546;2023-04-03T11:45:16;6.47;;;4.70;;
17985;SDS011;9118;48.122;11.546;2023-04-03T11:48:01;5.80;;;4.63;;
17985;SDS011;9118;48.122;11.546;2023-04-03T11:50:43;5.10;;;4.47;;
17985;SDS011;9118;48.122;11.546;2023-04-03T11:53:27;5.20;;;4.10;;
17985;SDS011;9118;48.122;11.546;2023-04-03T11:56:00;6.07;;;4.30;;
17985;SDS011;9118;48.122;11.546;2023-04-03T11:58:50;5.00;;;4.00;;
17985;SDS011;9118;48.122;11.546;2023-04-03T12:01:43;6.50;;;4.53;;
17985;SDS011;9118;48.122;11.546;2023-04-03T12:04:15;9.90;;;5.43;;
17985;SDS011;9118;48.122;11.546;2023-04-03T12:06:51;4.60;;;3.50;;
17985;SDS011;9118;48.122;11.546;2023-04-03T12:12:43;4.97;;;3.40;;
17985;SDS011;9118;48.122;11.546;2023-04-03T12:21:23;5.23;;;3.63;;
17985;SDS011;9118;48.122;11.546;2023-04-03T12:24:23;7.03;;;5.27;;
17985;SDS011;9118;48.122;11.546;2023-04-03T12:27:01;5.77;;;3.27;;
17985;SDS011;9118;48.122;11.546;2023-04-03T12:29:37;6.03;;;4.03;;
17985;SDS011;9118;48.122;11.546;2023-04-03T12:32:11;9.73;;;4.80;;
17985;SDS011;9118;48.122;11.546;2023-04-03T12:34:58;14.17;;;4.20;;
17985;SDS011;9118;48.122;11.546;2023-04-03T12:37:57;9.70;;;4.10;;
17985;SDS011;9118;48.122;11.546;2023-04-03T12:40:58;3.73;;;3.30;;
17985;SDS011;9118;48.122;11.546;2023-04-03T12:43:43;4.43;;;3.40;;
17985;SDS011;9118;48.122;11.546;2023-04-03T12:46:23;4.93;;;4.07;;
17985;SDS011;9118;48.122;11.546;2023-04-03T12:48:53;8.27;;;4.20;;
17985;SDS011;9118;48.122;11.546;2023-04-03T12:51:22;5.20;;;3.70;;
17985;SDS011;9118;48.122;11.546;2023-04-03T12:54:00;4.00;;;3.40;;
17985;SDS011;9118;48.122;11.546;2023-04-03T12:56:30;6.43;;;3.47;;
17985;SDS011;9118;48.122;11.546;2023-04-03T12:59:12;4.37;;;3.80;;
17985;SDS011;9118;48.122;11.546;2023-04-03T13:01:41;6.57;;;4.57;;
17985;SDS011;9118;48.122;11.546;2023-04-03T13:04:09;3.43;;;3.13;;
17985;SDS011;9118;48.122;11.546;2023-04-03T13:06:39;4.97;;;3.50;;
17985;SDS011;9118;48.122;11.546;2023-04-03T13:09:14;5.13;;;3.27;;
17985;SDS011;9118;48.122;11.546;2023-04-03T13:11:47;5.70;;;3.40;;
17985;SDS011;9118;48.122;11.546;2023-04-03T13:14:17;4.50;;;3.20;;
17985;SDS011;9118;48.122;11.546;2023-04-03T13:16:52;3.33;;;3.03;;
17985;SDS011;9118;48.122;11.546;2023-04-03T13:19:22;4.77;;;3.43;;
17985;SDS011;9118;48.122;11.546;2023-04-03T13:21:50;3.37;;;3.00;;
17985;SDS011;9118;48.122;11.546;2023-04-03T13:24:22;4.30;;;3.30;;
17985;SDS011;9118;48.122;11.546;2023-04-03T13:26:50;3.50;;;3.00;;
17985;SDS011;9118;48.122;11.546;2023-04-03T13:29:20;7.77;;;4.60;;
17985;SDS011;9118;48.122;11.546;2023-04-03T13:31:52;4.83;;;3.03;;
17985;SDS011;9118;48.122;11.546;2023-04-03T13:34:21;3.33;;;2.77;;
17985;SDS011;9118;48.122;11.546;2023-04-03T13:36:55;4.27;;;3.23;;
17985;SDS011;9118;48.122;11.546;2023-04-03T13:39:26;4.50;;;3.13;;
17985;SDS011;9118;48.122;11.546;2023-04-03T13:41:55;3.87;;;3.00;;
17985;SDS011;9118;48.122;11.546;2023-04-03T13:44:26;3.33;;;2.73;;
17985;SDS011;9118;48.122;11.546;2023-04-03T13:46:56;4.03;;;3.17;;
17985;SDS011;9118;48.122;11.546;2023-04-03T13:49:29;3.40;;;3.10;;
17985;SDS011;9118;48.122;11.546;2023-04-03T13:51:59;3.20;;;2.90;;
17985;SDS011;9118;48.122;11.546;2023-04-03T13:54:30;4.00;;;3.40;;
17985;SDS011;9118;48.122;11.546;2023-04-03T13:56:59;5.37;;;3.43;;
17985;SDS011;9118;48.122;11.546;2023-04-03T13:59:28;3.10;;;2.80;;
17985;SDS011;9118;48.122;11.546;2023-04-03T14:02:10;4.70;;;3.03;;
17985;SDS011;9118;48.122;11.546;2023-04-03T14:04:46;3.20;;;2.73;;
17985;SDS011;9118;48.122;11.546;2023-04-03T14:07:18;5.67;;;2.97;;
17985;SDS011;9118;48.122;11.546;2023-04-03T14:09:47;8.37;;;4.00;;
17985;SDS011;9118;48.122;11.546;2023-04-03T14:12:16;5.03;;;3.10;;
17985;SDS011;9118;48.122;11.546;2023-04-03T14:14:46;4.23;;;3.27;;
17985;SDS011;9118;48.122;11.546;2023-04-03T14:17:14;2.77;;;2.50;;
17985;SDS011;9118;48.122;11.546;2023-04-03T14:19:43;2.97;;;2.60;;
17985;SDS011;9118;48.122;11.546;2023-04-03T14:22:13;3.80;;;2.77;;
17985;SDS011;9118;48.122;11.546;2023-04-03T14:24:42;4.47;;;2.70;;
17985;SDS011;9118;48.122;11.546;2023-04-03T14:27:13;4.80;;;3.83;;
17985;SDS011;9118;48.122;11.546;2023-04-03T14:29:44;2.97;;;2.67;;
17985;SDS011;9118;48.122;11.546;2023-04-03T14:32:11;5.40;;;2.97;;
17985;SDS011;9118;48.122;11.546;2023-04-03T14:34:39;3.70;;;2.93;;
17985;SDS011;9118;48.122;11.546;2023-04-03T14:37:09;3.40;;;3.10;;
17985;SDS011;9118;48.122;11.546;2023-04-03T14:39:38;3.33;;;3.00;;
17985;SDS011;9118;48.122;11.546;2023-04-03T14:42:05;2.73;;;2.53;;
17985;SDS011;9118;48.122;11.546;2023-04-03T14:44:37;4.73;;;2.60;;
17985;SDS011;9118;48.122;11.546;2023-04-03T14:47:05;4.83;;;2.70;;
17985;SDS011;9118;48.122;11.546;2023-04-03T14:49:35;4.40;;;2.50;;
17985;SDS011;9118;48.122;11.546;2023-04-03T14:52:02;2.73;;;2.50;;
17985;SDS011;9118;48.122;11.546;2023-04-03T14:54:29;2.80;;;2.47;;
17985;SDS011;9118;48.122;11.546;2023-04-03T14:56:59;3.90;;;3.27;;
17985;SDS011;9118;48.122;11.546;2023-04-03T14:59:27;2.63;;;2.30;;
17985;SDS011;9118;48.122;11.546;2023-04-03T15:01:56;2.67;;;2.30;;
17985;SDS011;9118;48.122;11.546;2023-04-03T15:04:23;4.70;;;2.70;;
17985;SDS011;9118;48.122;11.546;2023-04-03T15:06:52;9.20;;;4.80;;
17985;SDS011;9118;48.122;11.546;2023-04-03T15:09:20;3.37;;;2.00;;
17985;SDS011;9118;48.122;11.546;2023-04-03T15:11:48;2.90;;;2.37;;
17985;SDS011;9118;48.122;11.546;2023-04-03T15:14:15;2.83;;;2.50;;
17985;SDS011;9118;48.122;11.546;2023-04-03T15:16:42;2.87;;;2.43;;